Robert Gray Army Air Field Airport
KGRK : rendu visible

Aérodrome :











RETROUVEZ-NOUS SUR...

 
LOGIN :

S'inscrire | Disclaimer

   EN    FR    IT 

 









Légende :    VFR   VFR Marginal   IFR   IFR Intensif   IFR Très Intensif
Visi : 
Plafond : 
>= 8 km
>= 3000ft
5 à 8 km
1000 à 3000 ft
1500m à 5 km
500 à 1000 ft
800 à 1500m
200 à 500 ft
< 800m
< 200 ft
Symboles :   Orages  Brouillard  Fortes neiges  Fortes précipitations  Vent > 20 kt






- Altitude de l'aérodrome : 1015 ft
- Code IATA : GRK


KGRK - Robert Gray Army Air Field

DERNIER METAR :
  • 060858Z AUTO 18009KT 10SM BKN130 26/20 A2997 RMK AO2 SLP135 T02590200 50003

METARs EXPIRÉS :
  • 060758Z AUTO 18011KT 10SM CLR 27/19 A2996 RMK AO2 SLP132 T02660188
  • 060658Z AUTO 16009KT 10SM CLR 28/18 A2996 RMK AO2 SLP132 T02750179

TAF TAF KGRK
Valide du 06 à 08h jusqu'au 07 à 14h UTC


060800Z 0608/0714 18009KT 9999 SKC QNH2995INS
BECMG 0615/0616 19010G15KT 9999 SKC QNH2986INS
BECMG 0700/0701 16009KT 9999 SKC QNH2990INS TX38/0621Z TN24/0612Z
FIR KZHU / Amérique du Nord



MET'MAP, la Météo Aéronautique d'un coup d'oeil ! - Copyright ORBIFLY Décembre 2007 - Disclaimer

ORBIFLY MET'MAP TEAM :

Programmation & Développement : Alexandra Zaïnal
Sur une idée originale de : Baudouin d'Aumeries
Assistance à la programmation : Marc-Olivier Méhu
Soutien technique & logistique : Manuel Goepfert

Contact : metmap@orbifly.com




SOURCES & CREDITS :

   NOAA       Earth
Advisory